Time;durP1;ratioP1;P1;durP2;ratioP2;P2;SDS_P1;SDS_P2;PMS_P1;PMS_P2;Temp;Humidity;BMP_temperature;BMP_pressure;BME280_temperature;BME280_humidity;BME280_pressure;Samples;Min_cycle;Max_cycle;Signal;HPM_P1;HPM_P2
2024/03/22 01:25:14;;;;;;;50.50;34.38;;;;;;;11.90;69.80;100184.69;6075882;23;20097;-85
2024/03/22 01:27:40;;;;;;;52.25;36.15;;;;;;;11.91;69.87;100178.47;6042049;23;20023;-87
2024/03/22 01:30:12;;;;;;;53.78;36.90;;;;;;;11.88;70.46;100181.31;6041694;23;20023;-87
2024/03/22 01:32:37;;;;;;;52.13;36.40;;;;;;;11.90;70.48;100177.66;6041533;23;20034;-88
2024/03/22 01:35:04;;;;;;;50.65;36.13;;;;;;;11.91;70.39;100165.28;6042042;23;20023;-87
2024/03/22 01:37:29;;;;;;;54.20;36.03;;;;;;;11.92;70.51;100172.28;6018372;23;20074;-87
2024/03/22 01:39:55;;;;;;;59.03;38.50;;;;;;;11.93;70.52;100160.78;6018544;23;20026;-87
2024/03/22 01:42:34;;;;;;;57.83;37.15;;;;;;;11.91;71.16;100152.97;6041645;23;20027;-87
2024/03/22 01:44:59;;;;;;;53.45;35.85;;;;;;;11.96;70.58;100143.00;6018444;23;20529;-87
2024/03/22 01:47:37;;;;;;;52.47;35.13;;;;;;;11.95;71.09;100151.00;6041899;23;20031;-87
2024/03/22 01:50:02;;;;;;;50.00;33.42;;;;;;;11.98;70.30;100138.50;6041847;23;20418;-87
2024/03/22 01:52:29;;;;;;;55.30;34.83;;;;;;;11.99;70.85;100144.59;6017953;23;20078;-87
2024/03/22 01:54:55;;;;;;;53.47;35.58;;;;;;;12.02;70.63;100152.34;6018392;23;20023;-88
2024/03/22 01:57:21;;;;;;;55.58;34.22;;;;;;;12.03;70.74;100146.13;6018485;23;20027;-85
2024/03/22 01:59:49;;;;;;;52.97;35.90;;;;;;;12.03;71.35;100138.22;6018381;23;20911;-85
2024/03/22 02:02:15;;;;;;;54.05;35.22;;;;;;;12.07;70.58;100141.59;6018066;23;20026;-85
2024/03/22 02:04:41;;;;;;;52.35;34.45;;;;;;;12.07;70.89;100133.66;6018191;23;20462;-87
2024/03/22 02:07:07;;;;;;;48.17;33.58;;;;;;;12.09;70.75;100116.81;6041897;23;20454;-88
2024/03/22 02:09:32;;;;;;;54.30;34.63;;;;;;;12.11;70.93;100114.06;6041716;23;20026;-87
2024/03/22 02:11:59;;;;;;;52.28;34.00;;;;;;;12.11;70.90;100108.78;6018008;23;20022;-87
2024/03/22 02:14:25;;;;;;;54.28;34.75;;;;;;;12.14;70.73;100115.69;6019055;23;20023;-87
2024/03/22 02:16:51;;;;;;;53.45;35.17;;;;;;;12.14;70.71;100113.88;6019873;23;20026;-87
2024/03/22 02:19:22;;;;;;;51.92;34.75;;;;;;;12.13;71.16;100112.19;6019772;23;20033;-85
2024/03/22 02:21:48;;;;;;;53.28;34.60;;;;;;;12.17;70.80;100107.56;6043546;23;20027;-87
2024/03/22 02:24:18;;;;;;;57.83;35.95;;;;;;;12.15;71.19;100096.28;6019624;23;20047;-88
2024/03/22 02:26:43;;;;;;;58.95;36.60;;;;;;;12.16;70.81;100092.69;6019615;23;20027;-86
2024/03/22 02:29:09;;;;;;;57.38;35.63;;;;;;;12.15;70.82;100083.91;6043442;23;20023;-85
2024/03/22 02:31:43;;;;;;;56.30;37.25;;;;;;;12.12;71.61;100084.94;6019773;23;20030;-86
2024/03/22 02:34:09;;;;;;;52.28;34.55;;;;;;;12.15;70.73;100088.34;6043293;23;20026;-86
2024/03/22 02:36:35;;;;;;;52.92;34.10;;;;;;;12.14;70.94;100095.41;6043181;23;20022;-85
2024/03/22 02:39:15;;;;;;;52.85;33.83;;;;;;;12.11;71.54;100096.44;6043447;23;20027;-85
2024/03/22 02:41:40;;;;;;;55.20;33.53;;;;;;;12.15;71.08;100094.47;6019708;23;20346;-86
2024/03/22 02:44:06;;;;;;;60.25;36.33;;;;;;;12.17;71.04;100083.81;6019722;23;20103;-86
2024/03/22 02:46:34;;;;;;;54.83;35.20;;;;;;;12.15;71.37;100062.81;6019705;23;20027;-86
2024/03/22 02:49:00;;;;;;;57.10;34.80;;;;;;;12.16;71.20;100063.66;6043133;23;20026;-86
2024/03/22 02:51:26;;;;;;;57.50;35.90;;;;;;;12.16;71.46;100061.03;6043062;23;20026;-86
2024/03/22 02:54:17;;;;;;;58.63;36.05;;;;;;;12.11;72.77;100043.66;6043211;23;20058;-86
2024/03/22 02:56:43;;;;;;;57.60;34.05;;;;;;;12.17;71.62;100036.31;6019664;23;20023;-86
2024/03/22 02:59:08;;;;;;;60.67;36.63;;;;;;;12.17;71.57;100039.81;6043077;23;20058;-86
2024/03/22 03:01:37;;;;;;;56.30;33.60;;;;;;;12.17;72.02;100038.97;6043332;23;20023;-86
2024/03/22 03:04:03;;;;;;;57.58;36.10;;;;;;;12.18;71.67;100038.06;6043434;23;20034;-89
2024/03/22 03:06:29;;;;;;;66.97;37.55;;;;;;;12.18;71.81;100024.84;6042587;23;20023;-89
2024/03/22 03:08:54;;;;;;;58.47;35.15;;;;;;;12.17;71.76;100024.00;6019314;23;20023;-89
2024/03/22 03:11:40;;;;;;;60.60;35.97;;;;;;;12.12;72.59;100023.41;6042734;23;20347;-89
2024/03/22 03:14:06;;;;;;;56.10;33.47;;;;;;;12.18;71.65;100035.41;6018905;23;20030;-89
2024/03/22 03:16:32;;;;;;;58.40;34.78;;;;;;;12.17;71.88;100031.03;6042646;23;20520;-89
2024/03/22 03:18:57;;;;;;;61.97;36.03;;;;;;;12.18;72.15;100030.13;6018888;23;20062;-89
2024/03/22 03:21:23;;;;;;;61.58;35.28;;;;;;;12.17;72.06;100015.22;6019051;23;20762;-89
2024/03/22 03:23:49;;;;;;;58.50;34.50;;;;;;;12.18;72.11;100001.94;6042472;23;20503;-89
2024/03/22 03:26:14;;;;;;;64.93;35.40;;;;;;;12.18;72.23;99991.38;6013497;23;20082;-89
2024/03/22 03:28:40;;;;;;;60.28;35.08;;;;;;;12.19;72.29;99995.72;6014146;23;20046;-89
2024/03/22 03:31:06;;;;;;;59.95;34.70;;;;;;;12.19;72.65;99990.44;6014166;23;20020;-89
2024/03/22 03:33:32;;;;;;;63.08;36.20;;;;;;;12.20;72.39;99994.78;6013780;23;20031;-89
2024/03/22 03:35:58;;;;;;;59.92;34.83;;;;;;;12.20;72.30;99986.88;6037734;23;20023;-89
2024/03/22 03:38:25;;;;;;;63.28;35.10;;;;;;;12.20;72.44;99988.66;6014072;23;20063;-89
2024/03/22 03:40:50;;;;;;;61.35;35.63;;;;;;;12.20;72.23;99984.22;6014166;23;20030;-89
2024/03/22 03:43:19;;;;;;;57.00;34.50;;;;;;;12.19;72.70;99979.03;6037416;23;20024;-89
2024/03/22 03:45:45;;;;;;;59.47;34.20;;;;;;;12.19;72.45;99974.59;6014016;23;20023;-89
2024/03/22 03:48:10;;;;;;;65.75;35.53;;;;;;;12.20;72.48;99971.03;6013778;23;20102;-89
2024/03/22 03:50:36;;;;;;;62.78;35.67;;;;;;;12.19;72.57;99963.22;6013879;23;20075;-89
2024/03/22 03:53:02;;;;;;;59.85;35.85;;;;;;;12.18;72.69;99962.34;6013700;23;20130;-89
2024/03/22 03:55:29;;;;;;;66.25;36.85;;;;;;;12.18;72.96;99958.88;6013955;23;20459;-89
2024/03/22 03:57:54;;;;;;;59.03;35.22;;;;;;;12.18;72.93;99948.31;6013807;23;20023;-89
2024/03/22 04:00:20;;;;;;;65.20;34.83;;;;;;;12.17;72.77;99954.53;6013907;23;20027;-89
2024/03/22 04:02:51;;;;;;;64.28;34.30;;;;;;;12.16;73.38;99958.09;6013042;23;20087;-89
2024/03/22 04:05:17;;;;;;;59.50;34.28;;;;;;;12.19;72.88;99942.94;6013560;23;20031;-89
2024/03/22 04:08:10;;;;;;;59.63;33.92;;;;;;;12.15;73.92;99938.78;6037284;23;20431;-89
2024/03/22 04:10:35;;;;;;;61.05;34.00;;;;;;;12.20;72.97;99938.50;6037248;23;20031;-89
2024/03/22 04:13:01;;;;;;;62.90;34.67;;;;;;;12.19;72.86;99924.44;6036994;23;20460;-89
2024/03/22 04:15:28;;;;;;;63.13;32.53;;;;;;;12.18;72.95;99927.22;6013770;23;20027;-89
2024/03/22 04:17:56;;;;;;;60.67;36.08;;;;;;;12.17;73.15;99923.72;6013867;23;20024;-89
2024/03/22 04:20:35;;;;;;;61.63;34.42;;;;;;;12.14;74.17;99917.78;6013577;23;20034;-89
2024/03/22 04:23:01;;;;;;;56.50;33.67;;;;;;;12.17;73.22;99922.84;6013236;23;20023;-89
2024/03/22 04:26:00;;;;;;;63.80;34.85;;;;;;;12.12;74.61;99923.97;6038072;23;20095;-89
2024/03/22 04:28:45;;;;;;;66.10;33.90;;;;;;;12.13;74.37;99906.38;6035245;23;20027;-89
2024/03/22 04:31:10;;;;;;;60.05;33.05;;;;;;;12.18;73.53;99908.75;6041669;23;20026;-89
2024/03/22 04:33:37;;;;;;;61.83;33.20;;;;;;;12.18;73.73;99900.81;6017799;23;20023;-89
2024/03/22 04:36:04;;;;;;;58.65;32.65;;;;;;;12.18;74.01;99895.53;6017999;23;20075;-89
2024/03/22 04:38:30;;;;;;;55.05;30.92;;;;;;;12.20;73.93;99894.50;6017828;23;20458;-89
2024/03/22 04:41:05;;;;;;;59.00;32.75;;;;;;;12.20;74.54;99889.22;6041620;23;20023;-89
2024/03/22 04:43:31;;;;;;;57.92;33.65;;;;;;;12.25;73.96;99873.94;6041623;23;20026;-89
2024/03/22 04:45:56;;;;;;;57.03;30.95;;;;;;;12.26;73.88;99869.50;6018114;23;20034;-88
2024/03/22 04:48:25;;;;;;;59.33;32.72;;;;;;;12.27;74.50;99862.44;6018161;23;20037;-89
2024/03/22 04:50:52;;;;;;;57.50;32.25;;;;;;;12.29;74.03;99857.94;6041532;23;20026;-89
2024/03/22 04:53:18;;;;;;;59.70;33.15;;;;;;;12.30;74.09;99868.38;6017839;23;20082;-89
2024/03/22 04:55:52;;;;;;;62.20;34.10;;;;;;;12.28;75.06;99883.47;6018122;23;20477;-89
2024/03/22 04:58:19;;;;;;;67.28;34.17;;;;;;;12.30;74.18;99881.56;6018170;23;20045;-89
2024/03/22 05:00:47;;;;;;;64.22;34.40;;;;;;;12.30;74.81;99896.56;6017869;23;20027;-89
2024/03/22 05:03:13;;;;;;;59.55;32.45;;;;;;;12.31;74.83;99883.28;6017640;23;20027;-89
2024/03/22 05:05:41;;;;;;;55.47;33.30;;;;;;;12.32;75.02;99892.88;6018111;23;20054;-89
2024/03/22 05:08:09;;;;;;;64.45;34.83;;;;;;;12.36;75.30;99885.63;6018065;23;20027;-89
2024/03/22 05:10:35;;;;;;;63.00;33.15;;;;;;;12.41;75.38;99901.19;6017952;23;20022;-89
2024/03/22 05:13:09;;;;;;;61.50;33.85;;;;;;;12.39;76.03;99885.44;6041349;23;20023;-88
2024/03/22 05:15:35;;;;;;;61.40;32.33;;;;;;;12.47;75.16;99879.66;6017879;23;20382;-89
2024/03/22 05:18:01;;;;;;;58.13;32.92;;;;;;;12.51;75.12;99878.53;6041557;23;20030;-90
2024/03/22 05:20:27;;;;;;;58.92;32.58;;;;;;;12.53;75.33;99879.28;6017953;23;20102;-89
2024/03/22 05:22:52;;;;;;;59.33;32.05;;;;;;;12.56;75.53;99873.78;6018270;23;20534;-89
2024/03/22 05:25:20;;;;;;;54.08;31.02;;;;;;;12.58;75.62;99877.19;6017870;23;20521;-89
2024/03/22 05:27:46;;;;;;;58.58;32.75;;;;;;;12.63;75.48;99888.31;6041634;23;20026;-89
2024/03/22 05:30:13;;;;;;;59.08;31.95;;;;;;;12.66;75.41;99887.25;6041334;23;20022;-89
2024/03/22 05:32:56;;;;;;;55.70;32.38;;;;;;;12.64;76.70;99882.06;6017357;23;20594;-89
2024/03/22 05:35:21;;;;;;;57.53;32.55;;;;;;;12.73;75.52;99878.00;6041417;23;20022;-89
2024/03/22 05:38:04;;;;;;;61.03;32.92;;;;;;;12.73;76.58;99866.59;6017808;23;20058;-89
2024/03/22 05:40:30;;;;;;;;;;;;;;;12.79;76.75;99881.19;6018342;23;20022;-89
2024/03/22 05:43:12;;;;;;;56.90;32.53;;;;;;;12.83;76.27;99886.19;6017746;23;20332;-89
2024/03/22 05:45:38;;;;;;;56.13;32.90;;;;;;;12.89;75.45;99874.38;6017847;23;20026;-89
2024/03/22 05:48:12;;;;;;;64.00;34.22;;;;;;;12.87;76.02;99871.81;6017712;23;20030;-89
2024/03/22 05:50:37;;;;;;;56.80;34.10;;;;;;;12.93;75.57;99873.22;6043339;23;20023;-89
2024/03/22 05:53:48;;;;;;;54.45;31.48;;;;;;;12.93;76.24;99859.19;6019518;23;20110;-89
2024/03/22 05:56:14;;;;;;;55.10;32.95;;;;;;;13.00;75.29;99853.38;6020068;23;20030;-90
2024/03/22 05:58:40;;;;;;;56.03;32.15;;;;;;;13.01;75.33;99854.25;6020846;23;20030;-89
2024/03/22 06:01:06;;;;;;;62.83;34.30;;;;;;;13.04;75.47;99854.03;6020559;23;20035;-87
2024/03/22 06:03:31;;;;;;;55.10;32.22;;;;;;;13.07;75.13;99845.91;6020360;23;20458;-86
2024/03/22 06:06:17;;;;;;;54.30;33.13;;;;;;;13.05;76.03;99853.09;6020370;23;20027;-86
2024/03/22 06:08:45;;;;;;;60.13;33.70;;;;;;;13.12;75.24;99857.00;6019910;23;20026;-86
2024/03/22 06:11:18;;;;;;;60.60;35.25;;;;;;;13.11;75.63;99865.88;6043740;23;20027;-86
2024/03/22 06:13:43;;;;;;;63.83;34.97;;;;;;;13.13;75.36;99863.97;6043747;23;20034;-86
2024/03/22 06:16:09;;;;;;;57.63;34.45;;;;;;;13.15;75.06;99851.53;6044102;23;20026;-86
2024/03/22 06:21:56;;;;;;;57.35;34.20;;;;;;;13.19;75.00;99848.69;6043994;23;20022;-86
2024/03/22 06:24:30;;;;;;;60.92;34.70;;;;;;;13.15;75.45;99845.38;6019870;23;20450;-86
2024/03/22 06:26:55;;;;;;;61.03;33.90;;;;;;;13.20;75.13;99821.31;6019737;23;20034;-87
2024/03/22 06:29:21;;;;;;;56.50;34.10;;;;;;;13.20;75.10;99837.97;6043582;23;20031;-86
2024/03/22 06:32:00;;;;;;;58.95;35.45;;;;;;;13.17;75.65;99832.94;6016937;23;20035;-86
2024/03/22 12:35:32;;;;;;;27.65;18.27;;;;;;;12.95;74.29;99680.25;6073829;23;20019;-86
2024/03/22 12:37:58;;;;;;;28.17;17.70;;;;;;;12.93;73.96;99675.06;6042645;23;20030;-86
2024/03/22 12:40:23;;;;;;;22.48;16.40;;;;;;;12.93;74.30;99674.25;6042436;23;20457;-85
2024/03/22 12:42:49;;;;;;;23.75;16.20;;;;;;;12.92;74.55;99672.53;6042204;23;20018;-86
2024/03/22 12:45:15;;;;;;;26.77;17.33;;;;;;;12.90;74.55;99668.19;6018952;23;20023;-86
2024/03/22 12:47:41;;;;;;;24.95;16.67;;;;;;;12.88;74.64;99666.63;6042526;23;20429;-85
2024/03/22 12:50:08;;;;;;;23.88;16.17;;;;;;;12.88;75.03;99667.47;6042361;23;20118;-86
2024/03/22 12:52:35;;;;;;;24.92;17.83;;;;;;;12.88;75.01;99659.56;6018579;23;20019;-86
2024/03/22 12:55:00;;;;;;;23.50;16.42;;;;;;;12.89;75.06;99665.66;6042341;23;20023;-86
2024/03/22 12:57:27;;;;;;;22.80;15.65;;;;;;;12.88;75.57;99662.19;6018672;23;20354;-86
2024/03/22 12:59:53;;;;;;;23.83;15.95;;;;;;;12.90;75.50;99657.63;6042293;23;20470;-86
2024/03/22 13:02:18;;;;;;;21.60;15.30;;;;;;;12.93;75.54;99659.22;6018694;23;20121;-85
2024/03/22 13:05:13;;;;;;;19.08;14.10;;;;;;;12.93;76.41;99663.69;6042332;23;20078;-86
2024/03/22 13:07:39;;;;;;;20.15;13.93;;;;;;;12.99;75.26;99656.16;6018813;23;20335;-87
2024/03/22 13:10:18;;;;;;;20.60;14.85;;;;;;;12.96;76.53;99652.88;6018867;23;20054;-86
2024/03/22 13:12:43;;;;;;;19.35;14.30;;;;;;;12.99;75.29;99648.25;6041826;23;20477;-85
2024/03/22 13:15:14;;;;;;;20.77;14.55;;;;;;;12.98;75.98;99651.00;6018476;23;20098;-86
2024/03/22 13:17:40;;;;;;;18.13;13.27;;;;;;;12.99;75.17;99640.31;6018539;23;20029;-86
2024/03/22 13:20:10;;;;;;;18.15;12.98;;;;;;;13.00;75.22;99643.78;6042289;23;20023;-85
2024/03/22 13:22:46;;;;;;;20.17;14.20;;;;;;;12.98;76.33;99637.78;6041811;23;20078;-86
2024/03/22 13:25:11;;;;;;;17.85;12.45;;;;;;;13.02;75.28;99631.31;6042136;23;20354;-85
2024/03/22 13:28:14;;;;;;;18.85;12.70;;;;;;;12.97;76.47;99630.81;6042341;23;20058;-86
2024/03/22 13:30:40;;;;;;;17.85;11.35;;;;;;;13.00;75.36;99631.44;6042093;23;20327;-85
2024/03/22 13:33:17;;;;;;;15.60;11.55;;;;;;;12.95;76.41;99622.13;6018417;23;20025;-85
2024/03/22 13:35:45;;;;;;;14.90;11.23;;;;;;;12.96;75.76;99616.75;6037339;23;20463;-86
2024/03/22 13:38:13;;;;;;;16.75;11.63;;;;;;;12.96;75.47;99616.75;6037352;23;20023;-86
2024/03/22 13:41:06;;;;;;;17.08;11.57;;;;;;;12.90;76.67;99611.91;6037317;23;20027;-86
2024/03/22 13:43:32;;;;;;;16.13;10.82;;;;;;;12.93;75.65;99613.47;6013554;23;20056;-86
2024/03/22 13:45:58;;;;;;;16.38;12.77;;;;;;;12.90;75.79;99617.19;6037208;23;20071;-85
2024/03/22 13:48:24;;;;;;;16.35;12.43;;;;;;;12.89;75.89;99612.81;6013505;23;20033;-85
2024/03/22 13:50:51;;;;;;;18.25;12.80;;;;;;;12.86;76.11;99613.88;6037218;23;20478;-86
2024/03/22 13:53:17;;;;;;;16.88;12.13;;;;;;;12.85;76.04;99603.41;6013558;23;20024;-86
2024/03/22 13:55:44;;;;;;;18.20;11.43;;;;;;;12.83;76.37;99600.91;6013414;23;20034;-86
2024/03/22 13:58:12;;;;;;;16.77;12.63;;;;;;;12.83;76.30;99600.91;6036908;23;20032;-85
2024/03/22 14:00:37;;;;;;;15.70;11.70;;;;;;;12.83;76.32;99595.63;6013320;23;20027;-86
2024/03/22 14:03:19;;;;;;;18.50;12.98;;;;;;;12.76;77.85;99599.63;6037094;23;20579;-86
2024/03/22 14:05:44;;;;;;;15.75;11.35;;;;;;;12.79;76.58;99596.78;6013523;23;20034;-86
2024/03/22 14:08:10;;;;;;;14.43;10.48;;;;;;;12.80;76.59;99597.63;6037158;23;20027;-86
2024/03/22 14:10:51;;;;;;;14.60;9.90;;;;;;;12.74;77.87;99588.31;6038456;23;20027;-86
2024/03/22 14:13:16;;;;;;;11.90;9.15;;;;;;;12.80;76.76;99587.06;6038750;23;20086;-86
2024/03/22 14:15:42;;;;;;;12.57;9.38;;;;;;;12.81;76.75;99586.09;6015504;23;20023;-86
2024/03/22 14:18:10;;;;;;;13.55;8.70;;;;;;;12.81;77.02;99575.53;6039032;23;20066;-86
2024/03/22 14:20:35;;;;;;;13.00;8.75;;;;;;;12.84;76.83;99576.19;6015327;23;20485;-86
2024/03/22 14:23:10;;;;;;;12.60;9.38;;;;;;;12.83;77.63;99571.84;6038643;23;20051;-86
2024/03/22 14:25:36;;;;;;;11.55;9.13;;;;;;;12.88;76.85;99575.00;6038886;23;20027;-87
2024/03/22 14:28:02;;;;;;;10.93;8.48;;;;;;;12.90;76.77;99572.28;6015347;23;20065;-87
2024/03/22 14:30:29;;;;;;;11.77;8.40;;;;;;;12.92;77.04;99569.50;6015120;23;20038;-87
2024/03/22 14:32:54;;;;;;;11.60;8.25;;;;;;;12.93;76.76;99563.28;6014724;23;20030;-86
2024/03/22 14:35:22;;;;;;;11.13;8.07;;;;;;;12.95;76.79;99564.00;6014633;23;20023;-86
2024/03/22 14:37:47;;;;;;;10.93;7.78;;;;;;;12.96;76.79;99560.41;6038739;23;20440;-86
2024/03/22 14:40:14;;;;;;;9.52;7.57;;;;;;;12.97;76.80;99557.66;6015302;23;20027;-86
2024/03/22 14:42:41;;;;;;;10.73;7.93;;;;;;;12.97;76.70;99555.00;6015007;23;20023;-86
2024/03/22 14:45:08;;;;;;;10.75;7.55;;;;;;;12.97;76.91;99552.38;6038965;23;20075;-86
2024/03/22 14:47:41;;;;;;;9.07;6.97;;;;;;;12.96;77.23;99548.06;6015106;23;20027;-86
2024/03/22 14:50:07;;;;;;;8.18;7.00;;;;;;;12.98;76.88;99550.59;6015198;23;20023;-87
2024/03/22 14:52:33;;;;;;;12.25;7.93;;;;;;;12.99;76.60;99544.34;6017504;23;20465;-87
2024/03/22 14:54:59;;;;;;;10.15;7.75;;;;;;;12.99;76.87;99536.41;6038394;23;20062;-86
2024/03/22 14:57:31;;;;;;;10.27;7.78;;;;;;;12.97;77.26;99546.25;6015344;23;20350;-86
2024/03/22 14:59:57;;;;;;;;;;;;;;;13.00;77.46;99540.75;6038965;23;20395;-86
2024/03/22 15:02:23;;;;;;;8.30;6.65;;;;;;;13.04;76.30;99536.94;6038154;23;19918;-86
2024/03/22 15:04:48;;;;;;;9.90;7.15;;;;;;;13.03;76.19;99536.09;6038632;23;20027;-86
2024/03/22 15:07:15;;;;;;;8.98;7.10;;;;;;;13.02;76.68;99523.00;6015007;23;20070;-86
2024/03/22 15:09:42;;;;;;;8.75;7.47;;;;;;;13.02;76.88;99533.56;6015351;23;20023;-86
2024/03/22 15:12:09;;;;;;;9.60;7.13;;;;;;;13.02;76.68;99521.19;6038681;23;20031;-86
2024/03/22 15:14:36;;;;;;;8.52;6.35;;;;;;;13.00;76.76;99517.81;6015285;23;20031;-86
2024/03/22 15:17:03;;;;;;;8.38;6.25;;;;;;;13.02;76.88;99507.16;6038851;23;20027;-86
2024/03/22 15:19:47;;;;;;;8.30;6.82;;;;;;;12.98;77.57;99510.97;6039043;23;20521;-86
2024/03/22 15:22:15;;;;;;;8.15;6.22;;;;;;;13.02;76.88;99512.44;6038336;23;20019;-86
2024/03/22 15:24:41;;;;;;;7.32;6.20;;;;;;;13.02;76.87;99515.06;6015011;23;20024;-86
2024/03/22 15:27:07;;;;;;;8.93;6.50;;;;;;;13.03;76.75;99516.75;6014759;23;20351;-86
2024/03/22 15:29:39;;;;;;;8.55;6.80;;;;;;;13.01;77.51;99510.75;6014611;23;20030;-86
2024/03/22 15:32:05;;;;;;;7.07;5.23;;;;;;;13.03;76.91;99504.41;6014869;23;20079;-86
2024/03/22 15:34:31;;;;;;;8.52;6.43;;;;;;;13.05;76.85;99501.66;6038569;23;20023;-87
2024/03/22 15:36:56;;;;;;;7.38;6.18;;;;;;;13.05;76.91;99501.66;6016268;23;20083;-96
2024/03/22 15:43:10;;;;;;;8.00;5.25;;;;;;;13.08;76.79;99497.94;6047120;23;20023;-96
2024/03/22 18:49:07;;;;;;;14.70;5.50;;;;;;;11.53;73.87;99460.00;6044602;23;20026;-90
2024/03/22 18:51:33;;;;;;;17.20;5.30;;;;;;;11.55;73.84;99456.31;6020776;23;20027;-93
2024/03/22 18:53:58;;;;;;;14.40;5.50;;;;;;;11.55;73.81;99466.03;6023954;23;20023;-93
2024/03/22 18:56:35;;;;;;;17.38;5.72;;;;;;;11.51;74.06;99456.63;6020436;23;20484;-92
2024/03/22 18:59:01;;;;;;;15.23;6.15;;;;;;;11.53;73.62;99452.94;6020944;23;20030;-94
2024/03/22 19:01:26;;;;;;;13.23;5.70;;;;;;;11.52;74.20;99451.25;6021159;23;20021;-95
2024/03/22 19:04:01;;;;;;;13.05;5.55;;;;;;;11.49;74.03;99453.22;6021908;23;20466;-93
2024/03/22 19:06:27;;;;;;;15.95;5.45;;;;;;;11.52;73.79;99448.63;6020856;23;20026;-94
2024/03/22 19:08:53;;;;;;;12.57;4.97;;;;;;;11.53;74.14;99452.94;6045372;23;20080;-94
2024/03/22 19:15:05;;;;;;;12.73;5.43;;;;;;;11.54;73.75;99449.34;6069954;23;20071;-93
2024/03/22 19:21:19;;;;;;;15.80;6.03;;;;;;;11.55;73.84;99460.75;6069928;23;20057;-93
2024/03/22 19:27:25;;;;;;;17.23;5.63;;;;;;;11.53;73.61;99466.13;6069912;23;20475;-93
2024/03/22 19:30:07;;;;;;;14.25;5.28;;;;;;;11.48;73.99;99462.94;6020829;23;20027;-93
2024/03/22 19:32:33;;;;;;;13.55;5.13;;;;;;;11.51;73.64;99457.47;6020482;23;20468;-93
2024/03/22 19:34:58;;;;;;;14.45;6.15;;;;;;;11.50;73.57;99466.31;6020644;23;20026;-93
2024/03/22 19:41:58;;;;;;;13.65;5.28;;;;;;;11.44;73.54;99454.38;6069792;23;20542;-93
2024/03/22 19:44:38;;;;;;;12.50;4.93;;;;;;;11.41;73.45;99446.69;6020401;23;20027;-93
2024/03/22 19:50:44;;;;;;;13.23;5.50;;;;;;;11.41;73.43;99440.56;6040859;23;20054;-93
2024/03/22 19:56:57;;;;;;;13.77;5.95;;;;;;;11.36;73.65;99425.03;6040832;23;20027;-93
2024/03/22 20:00:04;;;;;;;18.73;6.18;;;;;;;11.31;73.82;99428.00;6015859;23;20031;-93
2024/03/22 20:02:29;;;;;;;14.32;5.93;;;;;;;11.33;73.66;99431.38;6015737;23;20023;-92
2024/03/22 20:04:55;;;;;;;17.40;5.90;;;;;;;11.33;73.72;99427.91;6039299;23;20346;-93
2024/03/22 20:11:01;;;;;;;15.18;6.07;;;;;;;11.31;73.49;99429.78;6040755;23;20038;-93
2024/03/22 20:13:40;;;;;;;14.73;5.53;;;;;;;11.25;73.88;99425.75;6039105;23;20027;-93
2024/03/22 20:16:06;;;;;;;12.23;6.25;;;;;;;11.28;73.80;99428.19;6015689;23;20359;-93
2024/03/22 20:18:31;;;;;;;17.13;6.90;;;;;;;11.28;73.73;99428.19;6015670;23;20034;-93
2024/03/22 20:24:44;;;;;;;15.73;6.32;;;;;;;11.29;73.63;99431.69;6040587;23;20386;-92
2024/03/22 20:30:50;;;;;;;15.23;6.45;;;;;;;11.26;73.86;99427.47;6040569;23;20046;-93
2024/03/22 20:36:56;;;;;;;15.90;6.65;;;;;;;11.24;73.83;99424.06;6040642;23;20048;-93
2024/03/22 20:42:47;;;;;;;13.23;5.18;;;;;;;11.25;73.82;99417.03;6038982;23;20019;-93
2024/03/22 20:46:05;;;;;;;15.75;6.32;;;;;;;11.20;73.99;99418.16;5991933;23;20023;-92
2024/03/22 20:49:02;;;;;;;14.13;6.50;;;;;;;11.20;73.97;99414.66;6020126;23;20449;-93
2024/03/22 20:51:29;;;;;;;19.15;7.68;;;;;;;11.24;73.95;99416.16;5996484;23;20023;-93
2024/03/22 20:53:59;;;;;;;17.25;6.90;;;;;;;11.21;74.03;99408.44;6020416;23;20030;-93
2024/03/22 20:56:38;;;;;;;17.63;7.15;;;;;;;11.18;74.22;99406.03;6019905;23;20026;-93
2024/03/22 20:59:05;;;;;;;17.42;6.18;;;;;;;11.22;73.95;99394.34;6019892;23;20022;-94
2024/03/22 21:01:32;;;;;;;20.23;6.10;;;;;;;11.22;73.98;99391.72;5996395;23;20025;-93
2024/03/22 21:07:46;;;;;;;18.55;6.35;;;;;;;11.24;73.79;99391.59;6068855;23;20115;-93
2024/03/22 21:14:00;;;;;;;21.25;7.03;;;;;;;11.22;73.71;99381.19;6068773;23;20154;-93
2024/03/22 21:17:05;;;;;;;19.27;7.05;;;;;;;11.17;73.83;99385.88;5996250;23;20026;-93
2024/03/22 21:19:31;;;;;;;19.77;6.88;;;;;;;11.18;73.58;99383.16;6019927;23;20472;-93
2024/03/22 21:21:59;;;;;;;20.95;6.88;;;;;;;11.16;73.58;99392.97;6019810;23;20023;-93
2024/03/22 21:24:58;;;;;;;20.02;7.07;;;;;;;11.12;74.02;99380.09;6019698;23;20043;-93
2024/03/22 21:27:25;;;;;;;19.25;5.78;;;;;;;11.15;73.73;99364.09;6019867;23;20019;-93
2024/03/22 21:29:52;;;;;;;20.77;6.13;;;;;;;11.14;73.91;99354.50;6019626;23;20082;-93
2024/03/22 21:35:59;;;;;;;17.27;5.80;;;;;;;11.13;73.85;99352.78;6068760;23;20018;-93
2024/03/22 21:42:07;;;;;;;21.10;5.97;;;;;;;11.12;73.82;99330.88;6068697;23;20070;-93
2024/03/22 21:51:34;;;;;;;15.73;5.45;;;;;;;11.10;73.68;99335.41;6068617;23;20022;-93
2024/03/22 21:54:16;;;;;;;23.50;6.00;;;;;;;11.03;74.04;99332.31;6019654;23;20055;-93
2024/03/22 21:56:44;;;;;;;34.10;7.15;;;;;;;11.07;73.91;99338.25;6019634;23;20022;-93
2024/03/22 21:59:10;;;;;;;21.15;6.68;;;;;;;11.07;74.01;99336.44;5996234;23;20022;-93
2024/03/22 22:01:39;;;;;;;19.63;5.95;;;;;;;11.05;73.95;99325.19;6019863;23;20454;-93
2024/03/22 22:04:06;;;;;;;22.88;6.40;;;;;;;11.06;73.92;99331.28;6019633;23;20030;-93
2024/03/22 22:06:33;;;;;;;24.25;5.95;;;;;;;11.06;73.90;99332.13;5996111;23;20022;-93
2024/03/22 22:12:40;;;;;;;23.33;6.03;;;;;;;11.08;73.93;99324.13;6068529;23;20053;-93
2024/03/22 22:15:24;;;;;;;23.50;6.55;;;;;;;11.03;74.03;99315.69;6019953;23;20027;-93
2024/03/22 22:17:51;;;;;;;22.98;6.53;;;;;;;11.08;74.06;99313.59;6043148;23;20023;-93
2024/03/22 22:20:19;;;;;;;22.35;6.93;;;;;;;11.08;74.14;99313.59;6019415;23;20350;-93
2024/03/22 22:26:33;;;;;;;15.50;5.75;;;;;;;11.12;73.92;99308.97;6068504;23;20348;-93
2024/03/22 22:29:49;;;;;;;23.70;7.35;;;;;;;11.07;74.13;99301.38;6019420;23;20023;-93
2024/03/22 22:32:16;;;;;;;23.65;7.05;;;;;;;11.12;73.83;99298.41;6021005;23;20051;-93
2024/03/22 22:34:43;;;;;;;20.80;6.85;;;;;;;11.09;73.71;99294.22;6021187;23;20022;-93
2024/03/22 22:40:57;;;;;;;16.10;6.30;;;;;;;11.09;73.58;99288.94;6070257;23;20078;-93
2024/03/22 22:43:55;;;;;;;20.92;7.05;;;;;;;11.02;73.87;99291.13;5997625;23;20026;-93
2024/03/22 22:50:09;;;;;;;23.10;7.50;;;;;;;11.04;73.62;99288.41;6070150;23;20091;-94
2024/03/22 22:56:35;;;;;;;29.48;7.55;;;;;;;11.00;73.64;99285.16;6070034;23;20021;-93
2024/03/22 23:02:22;;;;;;;18.45;6.97;;;;;;;10.97;73.82;99272.16;6044622;23;20023;-93
2024/03/22 23:04:49;;;;;;;20.30;7.35;;;;;;;10.96;73.85;99273.13;6020649;23;20469;-93
2024/03/22 23:11:03;;;;;;;19.33;6.22;;;;;;;10.94;73.42;99265.31;6069799;23;20042;-93
2024/03/22 23:16:56;;;;;;;18.15;5.97;;;;;;;10.91;73.25;99255.00;6044501;23;20026;-93
2024/03/22 23:19:23;;;;;;;24.63;6.22;;;;;;;10.90;73.21;99260.34;5997364;23;20033;-93
2024/03/22 23:22:03;;;;;;;18.02;6.47;;;;;;;10.86;72.94;99250.97;6020792;23;20030;-92
2024/03/22 23:24:30;;;;;;;23.52;6.53;;;;;;;10.88;73.13;99249.91;6020654;23;20023;-93
2024/03/22 23:26:57;;;;;;;20.00;6.90;;;;;;;10.88;73.13;99246.47;6020578;23;20045;-93
2024/03/22 23:32:48;;;;;;;12.77;5.00;;;;;;;10.87;72.76;99234.25;6044200;23;20046;-93
2024/03/22 23:38:55;;;;;;;23.55;5.97;;;;;;;10.85;72.48;99229.06;6069678;23;20472;-93
2024/03/22 23:49:34;;;;;;;13.45;3.83;;;;;;;10.66;71.98;99211.03;6069266;23;20799;-92
2024/03/22 23:52:01;;;;;;;15.77;4.35;;;;;;;10.66;72.21;99208.41;6020740;23;20023;-93
2024/03/22 23:54:28;;;;;;;17.67;4.45;;;;;;;10.64;72.38;99202.38;6020639;23;20358;-93
